createdAt,value
2023-12-09T00:02:00.037Z,77.40
2023-12-09T00:04:30.940Z,77.20
2023-12-09T00:07:02.000Z,77.03
2023-12-09T00:09:33.108Z,77.11
2023-12-09T00:12:03.985Z,77.25
2023-12-09T00:14:34.852Z,76.97
2023-12-09T00:17:05.757Z,77.15
2023-12-09T00:19:36.577Z,76.98
2023-12-09T00:22:07.531Z,76.90
2023-12-09T00:24:38.238Z,76.95
2023-12-09T00:27:09.029Z,77.33
2023-12-09T00:29:40.258Z,77.32
2023-12-09T00:32:11.060Z,77.21
2023-12-09T00:34:41.884Z,77.13
2023-12-09T00:37:12.714Z,76.76
2023-12-09T00:39:43.587Z,77.04
2023-12-09T00:42:14.799Z,76.74
2023-12-09T00:44:46.047Z,77.02
2023-12-09T00:47:16.895Z,77.21
2023-12-09T00:49:47.716Z,77.36
2023-12-09T00:52:18.541Z,77.43
2023-12-09T00:54:49.304Z,77.42
2023-12-09T00:57:20.354Z,77.91
2023-12-09T00:59:51.165Z,77.28
2023-12-09T01:02:21.931Z,77.60
2023-12-09T01:04:52.738Z,77.20
2023-12-09T01:07:23.576Z,77.02
2023-12-09T01:09:54.237Z,77.05
2023-12-09T01:12:25.173Z,77.27
2023-12-09T01:14:56.056Z,76.87
2023-12-09T01:17:26.868Z,76.75
2023-12-09T01:19:57.709Z,77.16
2023-12-09T01:22:28.838Z,76.70
2023-12-09T01:24:59.904Z,76.72
2023-12-09T01:27:30.780Z,76.95
2023-12-09T01:30:01.560Z,76.80
2023-12-09T01:32:32.470Z,77.43
2023-12-09T01:35:03.564Z,77.40
2023-12-09T01:37:34.592Z,77.00
2023-12-09T01:40:06.255Z,76.81
2023-12-09T01:42:37.065Z,77.28
2023-12-09T01:45:08.896Z,77.13
2023-12-09T01:47:40.502Z,77.21
2023-12-09T01:50:13.034Z,77.35
2023-12-09T01:52:44.589Z,77.34
2023-12-09T01:55:16.101Z,77.21
2023-12-09T01:57:47.687Z,77.20
2023-12-09T02:00:22.076Z,77.47
2023-12-09T02:02:53.447Z,77.40
2023-12-09T02:05:25.274Z,77.47
2023-12-09T02:07:56.087Z,77.17
2023-12-09T02:10:27.174Z,77.36
2023-12-09T02:13:07.385Z,77.08
2023-12-09T02:15:43.642Z,77.30
2023-12-09T02:18:16.999Z,77.62
2023-12-09T02:20:47.864Z,77.59
2023-12-09T02:23:18.664Z,77.79
2023-12-09T02:25:56.405Z,77.81
2023-12-09T02:28:30.906Z,77.62
2023-12-09T02:31:08.921Z,77.51
2023-12-09T02:33:44.528Z,78.45
2023-12-09T02:36:22.679Z,78.79
2023-12-09T02:38:56.094Z,78.41
2023-12-09T02:41:28.915Z,78.75
2023-12-09T02:44:00.116Z,77.40
2023-12-09T02:46:31.126Z,77.39
2023-12-09T02:49:04.241Z,76.97
2023-12-09T02:51:33.589Z,76.88
2023-12-09T02:54:04.536Z,77.22
2023-12-09T02:56:35.353Z,77.40
2023-12-09T02:59:06.169Z,77.22
2023-12-09T03:01:36.967Z,77.34
2023-12-09T03:04:07.896Z,77.67
2023-12-09T03:06:38.731Z,77.39
2023-12-09T03:09:09.768Z,77.21
2023-12-09T03:11:40.530Z,76.78
2023-12-09T03:14:11.282Z,76.81
2023-12-09T03:16:42.021Z,76.64
2023-12-09T03:19:12.937Z,76.98
2023-12-09T03:21:44.859Z,76.77
2023-12-09T03:24:15.730Z,76.73
2023-12-09T03:26:50.683Z,76.92
2023-12-09T03:29:21.504Z,77.05
2023-12-09T03:31:52.339Z,77.29
2023-12-09T03:34:23.215Z,77.21
2023-12-09T03:36:54.116Z,76.78
2023-12-09T03:39:24.917Z,76.72
2023-12-09T03:41:55.799Z,76.58
2023-12-09T03:44:26.538Z,76.61
2023-12-09T03:46:57.314Z,76.70
2023-12-09T03:49:28.174Z,76.79
2023-12-09T03:51:59.077Z,76.65
2023-12-09T03:54:29.845Z,76.28
2023-12-09T03:57:01.160Z,76.22
2023-12-09T03:59:32.524Z,76.78
2023-12-09T04:02:03.372Z,76.83
2023-12-09T04:04:34.224Z,76.61
2023-12-09T04:07:05.316Z,76.45
2023-12-09T04:09:36.248Z,76.44
2023-12-09T04:12:07.895Z,76.61
2023-12-09T04:14:38.711Z,76.69
2023-12-09T04:17:09.474Z,76.75
2023-12-09T04:19:40.358Z,76.37
2023-12-09T04:22:11.569Z,76.43
2023-12-09T04:24:44.143Z,76.77
2023-12-09T04:27:15.043Z,76.85
2023-12-09T04:29:45.938Z,76.65
2023-12-09T04:32:16.700Z,76.77
2023-12-09T04:34:47.505Z,76.72
2023-12-09T04:37:18.398Z,77.33
2023-12-09T04:39:49.199Z,76.70
2023-12-09T04:42:20.825Z,76.66
2023-12-09T04:44:51.645Z,76.67
2023-12-09T04:47:23.211Z,77.02
2023-12-09T04:49:54.122Z,76.85
2023-12-09T04:52:25.251Z,76.52
2023-12-09T04:54:57.022Z,77.01
2023-12-09T04:57:28.764Z,76.25
2023-12-09T04:59:59.840Z,76.67
2023-12-09T05:02:30.724Z,76.90
2023-12-09T05:05:01.540Z,77.11
2023-12-09T05:07:32.261Z,76.68
2023-12-09T05:10:05.248Z,76.49
2023-12-09T05:12:36.193Z,76.83
2023-12-09T05:15:08.685Z,76.59
2023-12-09T05:17:39.573Z,76.90
2023-12-09T05:20:12.315Z,77.22
2023-12-09T05:22:43.146Z,77.17
2023-12-09T05:25:14.446Z,76.55
2023-12-09T05:27:45.231Z,76.81
2023-12-09T05:30:16.678Z,76.76
2023-12-09T05:32:47.585Z,76.95
2023-12-09T05:35:18.611Z,76.80
2023-12-09T05:37:49.432Z,76.38
2023-12-09T05:40:20.604Z,77.02
2023-12-09T05:42:51.486Z,76.35
2023-12-09T05:45:22.426Z,76.54
2023-12-09T05:47:53.561Z,76.60
2023-12-09T05:50:25.041Z,76.86
2023-12-09T05:52:57.374Z,76.81
2023-12-09T05:55:29.347Z,76.89
2023-12-09T05:58:00.238Z,76.87
2023-12-09T06:00:31.470Z,76.66
2023-12-09T06:03:02.468Z,76.47
2023-12-09T06:05:33.432Z,76.39
2023-12-09T06:08:04.405Z,76.26
2023-12-09T06:10:35.282Z,76.22
2023-12-09T06:13:06.199Z,76.47
2023-12-09T06:15:37.264Z,83.86
2023-12-09T06:18:08.793Z,86.93
2023-12-09T06:20:39.558Z,80.34
2023-12-09T06:23:10.706Z,77.91
2023-12-09T06:25:41.433Z,76.50
2023-12-09T06:28:12.339Z,75.43
2023-12-09T06:30:43.214Z,75.29
2023-12-09T06:33:14.173Z,75.80
2023-12-09T06:35:45.051Z,75.69
2023-12-09T06:38:15.890Z,75.04
2023-12-09T06:40:46.755Z,74.84
2023-12-09T06:43:17.491Z,75.03
2023-12-09T06:45:48.259Z,75.29
2023-12-09T06:48:19.973Z,74.98
2023-12-09T06:50:50.857Z,75.35
2023-12-09T06:53:21.835Z,75.34
2023-12-09T06:55:52.578Z,75.45
2023-12-09T06:58:23.365Z,75.35
2023-12-09T07:00:54.246Z,75.54
2023-12-09T07:03:26.639Z,75.52
2023-12-09T07:05:58.223Z,75.60
2023-12-09T07:08:30.739Z,75.89
2023-12-09T07:11:01.759Z,75.72
2023-12-09T07:13:32.525Z,75.83
2023-12-09T07:16:04.438Z,75.93
2023-12-09T07:18:35.370Z,75.61
2023-12-09T07:21:06.969Z,75.78
2023-12-09T07:23:38.069Z,75.84
2023-12-09T07:26:09.410Z,75.55
2023-12-09T07:28:40.264Z,75.94
2023-12-09T07:31:11.737Z,75.65
2023-12-09T07:33:42.669Z,75.91
2023-12-09T07:36:14.005Z,75.94
2023-12-09T07:38:44.929Z,75.75
2023-12-09T07:41:15.956Z,75.74
2023-12-09T07:43:46.809Z,76.06
2023-12-09T07:46:17.839Z,75.75
2023-12-09T07:48:48.816Z,75.99
2023-12-09T07:51:19.757Z,75.80
2023-12-09T07:53:50.645Z,75.81
2023-12-09T07:56:21.605Z,75.81
2023-12-09T07:58:53.168Z,75.82
2023-12-09T08:01:24.145Z,75.54
2023-12-09T08:03:55.056Z,76.02
2023-12-09T08:06:26.078Z,75.83
2023-12-09T08:08:57.014Z,76.11
2023-12-09T08:11:27.809Z,75.73
2023-12-09T08:13:58.576Z,76.01
2023-12-09T08:16:29.377Z,75.98
2023-12-09T08:19:00.415Z,75.99
2023-12-09T08:21:31.253Z,75.71
2023-12-09T08:24:02.890Z,75.89
2023-12-09T08:26:34.133Z,75.49
2023-12-09T08:29:05.891Z,75.52
2023-12-09T08:31:36.711Z,75.36
2023-12-09T08:34:07.588Z,75.29
2023-12-09T08:36:38.558Z,75.39
2023-12-09T08:39:10.112Z,75.28
2023-12-09T08:41:41.015Z,75.00
2023-12-09T08:44:11.819Z,75.10
2023-12-09T08:46:42.684Z,75.38
2023-12-09T08:49:14.316Z,74.87
2023-12-09T08:51:49.256Z,74.72
2023-12-09T08:54:20.180Z,74.93
2023-12-09T08:56:51.057Z,74.68
2023-12-09T08:59:22.013Z,74.74
2023-12-09T09:01:53.122Z,74.47
2023-12-09T09:04:26.928Z,74.72
2023-12-09T09:06:57.714Z,74.70
2023-12-09T09:09:28.628Z,74.49
2023-12-09T09:11:59.538Z,74.66
2023-12-09T09:14:30.441Z,74.48
2023-12-09T09:17:01.273Z,74.16
2023-12-09T09:19:32.457Z,74.48
2023-12-09T09:22:03.796Z,74.60
2023-12-09T09:24:35.033Z,74.37
2023-12-09T09:27:06.494Z,74.39
2023-12-09T09:29:37.390Z,74.00
2023-12-09T09:32:09.334Z,73.94
2023-12-09T09:34:40.216Z,74.11
2023-12-09T09:37:11.080Z,74.04
2023-12-09T09:39:41.981Z,74.30
2023-12-09T09:42:22.286Z,74.14
2023-12-09T09:44:58.214Z,74.02
2023-12-09T09:47:30.742Z,73.89
2023-12-09T09:50:03.651Z,74.13
2023-12-09T09:52:37.462Z,74.11
2023-12-09T09:55:10.272Z,73.88
2023-12-09T09:57:41.677Z,73.64
2023-12-09T10:00:15.856Z,73.69
2023-12-09T10:02:48.177Z,73.40
2023-12-09T10:05:21.631Z,73.67
2023-12-09T10:07:54.690Z,73.56
2023-12-09T10:10:26.346Z,73.57
2023-12-09T10:12:57.348Z,73.52
2023-12-09T10:15:28.353Z,73.19
2023-12-09T10:18:05.037Z,73.15
2023-12-09T10:20:38.025Z,72.96
2023-12-09T10:23:09.510Z,72.65
2023-12-09T10:25:41.805Z,72.71
2023-12-09T10:28:13.657Z,72.57
2023-12-09T10:30:45.542Z,72.59
2023-12-09T10:33:17.064Z,72.70
2023-12-09T10:35:47.933Z,72.35
2023-12-09T10:38:20.285Z,72.23
2023-12-09T10:40:51.309Z,72.16
2023-12-09T10:43:25.294Z,72.29
2023-12-09T10:45:56.202Z,72.30
2023-12-09T10:48:27.314Z,72.44
2023-12-09T10:50:58.355Z,72.42
2023-12-09T10:53:29.210Z,72.50
2023-12-09T10:56:00.731Z,72.62
2023-12-09T10:58:32.303Z,72.49
2023-12-09T11:01:04.576Z,72.51
2023-12-09T11:03:36.489Z,72.26
2023-12-09T11:06:09.450Z,72.61
2023-12-09T11:08:41.883Z,72.77
2023-12-09T11:11:13.846Z,72.79
2023-12-09T11:13:47.602Z,72.58
2023-12-09T11:16:18.440Z,72.71
2023-12-09T11:18:54.310Z,72.56
2023-12-09T11:21:28.064Z,72.45
2023-12-09T11:24:00.972Z,72.54
2023-12-09T11:26:34.341Z,72.52
2023-12-09T11:29:06.978Z,72.82
2023-12-09T11:31:42.759Z,73.04
2023-12-09T11:34:15.780Z,72.95
2023-12-09T11:36:48.214Z,72.95
2023-12-09T11:39:21.988Z,72.87
2023-12-09T11:41:53.435Z,72.87
2023-12-09T11:44:25.237Z,72.47
2023-12-09T11:46:56.333Z,72.49
2023-12-09T11:49:28.721Z,72.43
2023-12-09T11:52:00.240Z,72.30
2023-12-09T11:54:31.177Z,72.17
2023-12-09T11:57:02.273Z,71.97
2023-12-09T11:59:33.149Z,71.55
2023-12-09T12:02:04.085Z,71.60
2023-12-09T12:04:38.920Z,71.77
2023-12-09T12:07:10.117Z,71.68
2023-12-09T12:09:41.242Z,71.66
2023-12-09T12:12:12.412Z,71.60
2023-12-09T12:14:43.665Z,71.63
2023-12-09T12:17:17.304Z,71.51
2023-12-09T12:19:49.156Z,71.01
2023-12-09T12:22:21.291Z,70.62
2023-12-09T12:24:53.401Z,70.10
2023-12-09T12:27:26.854Z,69.77
2023-12-09T12:29:58.940Z,69.36
2023-12-09T12:32:30.199Z,69.14
2023-12-09T12:35:04.340Z,69.03
2023-12-09T12:37:35.585Z,68.94
2023-12-09T12:40:07.629Z,68.77
2023-12-09T12:42:38.687Z,68.49
2023-12-09T12:45:20.384Z,68.95
2023-12-09T12:47:51.687Z,68.94
2023-12-09T12:50:23.132Z,69.03
2023-12-09T12:52:54.521Z,69.01
2023-12-09T12:55:25.593Z,69.21
2023-12-09T12:57:57.030Z,69.24
2023-12-09T13:00:28.050Z,69.47
2023-12-09T13:02:59.138Z,69.67
2023-12-09T13:05:30.155Z,69.63
2023-12-09T13:08:01.248Z,69.77
2023-12-09T13:10:32.199Z,69.85
2023-12-09T13:13:03.483Z,69.85
2023-12-09T13:15:34.825Z,69.74
2023-12-09T13:18:07.385Z,69.81
2023-12-09T13:20:39.077Z,69.74
2023-12-09T13:23:10.066Z,69.79
2023-12-09T13:25:41.802Z,69.87
2023-12-09T13:28:12.898Z,69.80
2023-12-09T13:30:43.944Z,70.00
2023-12-09T13:33:15.058Z,70.01
2023-12-09T13:35:46.374Z,69.91
2023-12-09T13:38:17.603Z,69.95
2023-12-09T13:40:49.064Z,69.98
2023-12-09T13:43:20.084Z,69.99
2023-12-09T13:45:51.331Z,69.96
2023-12-09T13:48:23.025Z,69.88
2023-12-09T13:50:54.293Z,70.01
2023-12-09T13:53:25.506Z,70.03
2023-12-09T13:55:56.700Z,70.19
2023-12-09T13:58:28.873Z,70.28
2023-12-09T14:01:00.553Z,70.30
2023-12-09T14:03:31.925Z,70.49
2023-12-09T14:06:03.069Z,70.22
2023-12-09T14:08:35.182Z,70.22
2023-12-09T14:11:08.684Z,70.12
2023-12-09T14:13:40.878Z,70.22
2023-12-09T14:16:13.352Z,70.14
2023-12-09T14:18:44.453Z,70.19
2023-12-09T14:21:15.508Z,70.43
2023-12-09T14:23:46.538Z,70.72
2023-12-09T14:26:17.660Z,70.90
2023-12-09T14:28:48.635Z,71.13
2023-12-09T14:31:19.677Z,71.21
2023-12-09T14:33:51.339Z,71.43
2023-12-09T14:36:22.525Z,71.52
2023-12-09T14:38:54.024Z,71.97
2023-12-09T14:41:24.906Z,72.10
2023-12-09T14:43:59.756Z,72.44
2023-12-09T14:46:36.929Z,72.52
2023-12-09T14:49:08.080Z,72.53
2023-12-09T14:51:43.667Z,73.01
2023-12-09T14:54:18.132Z,73.37
2023-12-09T14:56:50.379Z,73.30
2023-12-09T14:59:21.480Z,73.67
2023-12-09T15:01:52.387Z,73.79
2023-12-09T15:04:23.426Z,73.99
2023-12-09T15:06:54.702Z,74.00
2023-12-09T15:09:26.850Z,74.47
2023-12-09T15:11:59.117Z,74.65
2023-12-09T15:14:29.416Z,74.85
2023-12-09T15:17:00.522Z,74.95
2023-12-09T15:19:31.772Z,75.28
2023-12-09T15:22:02.779Z,75.39
2023-12-09T15:24:33.999Z,75.53
2023-12-09T15:27:05.788Z,75.81
2023-12-09T15:29:37.026Z,75.94
2023-12-09T15:32:08.615Z,75.87
2023-12-09T15:34:40.064Z,76.35
2023-12-09T15:37:11.199Z,76.26
2023-12-09T15:39:42.916Z,76.24
2023-12-09T15:42:14.457Z,76.27
2023-12-09T15:44:45.415Z,78.32
2023-12-09T15:47:16.925Z,78.34
2023-12-09T15:49:47.998Z,77.35
2023-12-09T15:52:18.956Z,76.81
2023-12-09T15:54:49.883Z,77.11
2023-12-09T15:57:21.341Z,76.82
2023-12-09T15:59:54.720Z,76.78
2023-12-09T16:02:28.257Z,77.21
2023-12-09T16:05:00.004Z,77.10
2023-12-09T16:07:31.284Z,77.66
2023-12-09T16:10:02.343Z,77.44
2023-12-09T16:12:33.523Z,77.56
2023-12-09T16:15:05.832Z,77.56
2023-12-09T16:17:37.270Z,77.27
2023-12-09T16:20:11.617Z,77.52
2023-12-09T16:22:42.846Z,77.67
2023-12-09T16:25:14.162Z,77.68
2023-12-09T16:27:45.386Z,77.80
2023-12-09T16:30:17.843Z,77.86
2023-12-09T16:32:50.910Z,78.20
2023-12-09T16:35:22.439Z,78.10
2023-12-09T16:37:53.571Z,77.64
2023-12-09T16:40:24.993Z,78.01
2023-12-09T16:42:56.146Z,78.10
2023-12-09T16:45:27.425Z,78.16
2023-12-09T16:47:58.794Z,78.24
2023-12-09T16:50:29.832Z,78.09
2023-12-09T16:53:00.860Z,78.19
2023-12-09T16:55:31.854Z,78.42
2023-12-09T16:58:02.967Z,78.40
2023-12-09T17:00:34.568Z,78.34
2023-12-09T17:03:06.005Z,78.25
2023-12-09T17:05:37.222Z,78.49
2023-12-09T17:08:08.768Z,78.51
2023-12-09T17:10:39.681Z,78.33
2023-12-09T17:13:10.601Z,78.50
2023-12-09T17:15:41.653Z,78.35
2023-12-09T17:18:13.237Z,78.58
2023-12-09T17:20:44.330Z,78.44
2023-12-09T17:23:16.283Z,78.77
2023-12-09T17:25:47.278Z,78.41
2023-12-09T17:28:19.800Z,78.38
2023-12-09T17:30:51.421Z,78.72
2023-12-09T17:33:22.858Z,78.87
2023-12-09T17:35:54.043Z,79.07
2023-12-09T17:38:25.036Z,79.12
2023-12-09T17:40:56.090Z,79.29
2023-12-09T17:43:27.178Z,79.09
2023-12-09T17:45:58.475Z,79.23
2023-12-09T17:48:29.931Z,79.34
2023-12-09T17:51:00.933Z,79.27
2023-12-09T17:53:31.870Z,79.24
2023-12-09T17:56:03.025Z,79.26
2023-12-09T17:58:33.993Z,79.37
2023-12-09T18:01:05.173Z,79.41
2023-12-09T18:03:36.329Z,79.50
2023-12-09T18:06:08.707Z,79.30
2023-12-09T18:08:39.812Z,79.10
2023-12-09T18:11:11.776Z,79.25
2023-12-09T18:13:43.478Z,79.07
2023-12-09T18:16:18.016Z,79.17
2023-12-09T18:18:49.109Z,78.83
2023-12-09T18:21:20.111Z,78.88
2023-12-09T18:23:51.102Z,78.68
2023-12-09T18:26:22.066Z,78.83
2023-12-09T18:28:53.442Z,78.89
2023-12-09T18:31:24.425Z,78.62
2023-12-09T18:33:55.642Z,78.40
2023-12-09T18:36:26.812Z,79.30
2023-12-09T18:38:57.839Z,78.77
2023-12-09T18:41:28.901Z,78.66
2023-12-09T18:43:59.940Z,78.39
2023-12-09T18:46:30.988Z,78.43
2023-12-09T18:49:02.254Z,78.15
2023-12-09T18:51:33.402Z,78.16
2023-12-09T18:54:04.579Z,78.27
2023-12-09T18:56:36.781Z,78.09
2023-12-09T18:59:08.709Z,78.21
2023-12-09T19:01:40.071Z,78.05
2023-12-09T19:04:11.160Z,78.04
2023-12-09T19:06:49.795Z,77.93
2023-12-09T19:09:28.668Z,78.02
2023-12-09T19:11:59.874Z,77.73
2023-12-09T19:14:30.905Z,77.95
2023-12-09T19:17:02.279Z,78.27
2023-12-09T19:19:34.516Z,77.88
2023-12-09T19:22:06.231Z,77.88
2023-12-09T19:24:37.243Z,78.00
2023-12-09T19:27:10.488Z,77.96
2023-12-09T19:29:41.709Z,77.85
2023-12-09T19:32:13.566Z,77.81
2023-12-09T19:34:44.766Z,77.97
2023-12-09T19:37:16.083Z,77.73
2023-12-09T19:39:47.233Z,77.94
2023-12-09T19:42:19.472Z,77.56
2023-12-09T19:44:50.555Z,77.81
2023-12-09T19:47:21.606Z,77.67
2023-12-09T19:49:52.763Z,77.76
2023-12-09T19:52:24.086Z,77.71
2023-12-09T19:54:56.672Z,77.81
2023-12-09T19:57:27.814Z,77.70
2023-12-09T19:59:58.966Z,77.81
2023-12-09T20:02:30.297Z,77.63
2023-12-09T20:05:01.894Z,77.79
2023-12-09T20:07:33.110Z,77.59
2023-12-09T20:10:04.463Z,77.37
2023-12-09T20:12:35.716Z,77.55
2023-12-09T20:15:10.262Z,77.57
2023-12-09T20:17:41.550Z,77.66
2023-12-09T20:20:14.014Z,77.45
2023-12-09T20:22:44.986Z,77.45
2023-12-09T20:25:16.198Z,77.43
2023-12-09T20:27:47.149Z,77.53
2023-12-09T20:30:18.399Z,77.48
2023-12-09T20:32:50.224Z,77.51
2023-12-09T20:35:21.480Z,77.35
2023-12-09T20:37:52.552Z,77.49
2023-12-09T20:40:23.520Z,77.39
2023-12-09T20:42:54.697Z,77.45
2023-12-09T20:45:27.926Z,77.47
2023-12-09T20:47:59.138Z,77.36
2023-12-09T20:50:30.145Z,77.35
2023-12-09T20:53:03.224Z,77.56
2023-12-09T20:55:32.524Z,77.42
2023-12-09T20:58:04.058Z,77.79
2023-12-09T21:00:35.098Z,77.74
2023-12-09T21:03:06.267Z,77.49
2023-12-09T21:05:37.334Z,77.78
2023-12-09T21:08:08.519Z,77.68
2023-12-09T21:10:39.478Z,77.85
2023-12-09T21:13:10.542Z,78.13
2023-12-09T21:15:42.159Z,78.18
2023-12-09T21:18:15.477Z,78.49
2023-12-09T21:20:46.637Z,78.37
2023-12-09T21:23:17.589Z,78.37
2023-12-09T21:25:48.940Z,78.35
2023-12-09T21:28:21.704Z,78.48
2023-12-09T21:30:53.115Z,78.53
2023-12-09T21:33:24.455Z,78.69
2023-12-09T21:35:55.608Z,78.80
2023-12-09T21:38:26.548Z,79.02
2023-12-09T21:40:57.641Z,78.99
2023-12-09T21:43:29.214Z,79.06
2023-12-09T21:46:00.311Z,79.03
2023-12-09T21:48:31.548Z,79.19
2023-12-09T21:51:04.573Z,79.19
2023-12-09T21:53:37.148Z,79.36
2023-12-09T21:56:09.227Z,79.28
2023-12-09T21:58:40.351Z,79.55
2023-12-09T22:01:11.859Z,79.59
2023-12-09T22:03:42.885Z,79.62
2023-12-09T22:06:14.652Z,79.43
2023-12-09T22:08:46.323Z,79.66
2023-12-09T22:11:18.243Z,79.33
2023-12-09T22:13:49.824Z,79.58
2023-12-09T22:16:23.178Z,79.34
2023-12-09T22:18:54.249Z,79.38
2023-12-09T22:21:25.451Z,79.76
2023-12-09T22:23:56.442Z,79.72
2023-12-09T22:26:27.419Z,79.79
2023-12-09T22:28:58.996Z,79.43
2023-12-09T22:31:29.947Z,79.65
2023-12-09T22:34:04.037Z,79.47
2023-12-09T22:36:35.197Z,79.68
2023-12-09T22:39:09.211Z,79.40
2023-12-09T22:41:40.391Z,79.32
2023-12-09T22:44:11.336Z,79.27
2023-12-09T22:46:42.378Z,79.34
2023-12-09T22:49:14.580Z,78.99
2023-12-09T22:51:45.789Z,79.16
2023-12-09T22:54:16.841Z,79.10
2023-12-09T22:56:47.819Z,79.03
2023-12-09T22:59:18.753Z,78.92
2023-12-09T23:01:50.540Z,78.89
2023-12-09T23:04:22.097Z,78.98
2023-12-09T23:06:53.122Z,79.14
2023-12-09T23:09:24.144Z,78.94
2023-12-09T23:11:55.129Z,79.01
2023-12-09T23:14:26.554Z,79.22
2023-12-09T23:16:57.526Z,79.32
2023-12-09T23:19:30.152Z,79.04
2023-12-09T23:22:01.174Z,79.29
2023-12-09T23:24:32.267Z,79.47
2023-12-09T23:27:03.880Z,79.41
2023-12-09T23:29:34.804Z,79.44
2023-12-09T23:32:06.515Z,79.96
2023-12-09T23:34:37.580Z,79.61
2023-12-09T23:37:08.849Z,79.74
2023-12-09T23:39:40.858Z,79.69
2023-12-09T23:42:11.908Z,79.85
2023-12-09T23:44:42.884Z,80.30
2023-12-09T23:47:13.904Z,80.04
2023-12-09T23:49:44.946Z,80.42
2023-12-09T23:52:16.015Z,80.79
2023-12-09T23:54:47.113Z,80.84
2023-12-09T23:57:18.044Z,80.87
2023-12-09T23:59:49.023Z,80.87
